Flight Track Log - Related Links

Times and Time Zones

All times are in EDT time to prevent confusion due to time zone crossing. See the N555LG flight status page for this flight to view local times or setup timezone preferences in your user account.

Time Position Orientation Groundspeed Altitude Reporting Facility
EDT Latitude Longitude Course Direction KTS MPH feet Rate Location/Type
Fri 01:03:03 PM 37.6606 -97.4194 18° North 162 186 2,100  Level Kansas City Center
Fri 01:04:16 PM 37.7214 -97.3942 18° North 191 220 5,000 1,654 Climbing Kansas City Center
Fri 01:05:10 PM 37.7683 -97.3728 20° North 208 239 5,600 1,707 Climbing Kansas City Center
Fri 01:06:12 PM 37.8192 -97.3103 44° Northeast 256 295 8,300 2,832 Climbing Kansas City Center
Fri 01:07:15 PM 37.8547 -97.2247 62° Northeast 272 313 11,500 2,880 Climbing Kansas City Center
Fri 01:08:17 PM 37.8964 -97.1181 64° Northeast 285 328 14,300 1,694 Climbing Kansas City Center
Fri 01:09:19 PM 37.9367 -97.0203 62° Northeast 313 360 15,000 339 Climbing Kansas City Center
Fri 01:10:21 PM 37.9803 -96.9114 63° Northeast 343 395 15,000  Level Kansas City Center
Fri 01:11:23 PM 38.0247 -96.8047 62° Northeast 343 395 15,000  Level Kansas City Center
Fri 01:12:25 PM 38.0681 -96.6950 63° Northeast 347 399 15,000  Level Kansas City Center
Fri 01:13:27 PM 38.1125 -96.5867 62° Northeast 347 399 15,000 48 Level Kansas City Center
Fri 01:14:29 PM 38.1681 -96.4592 61° Northeast 346 398 15,100 48 Climbing Kansas City Center
Fri 01:15:31 PM 38.2114 -96.3614 61° Northeast 344 396 15,100  Level Kansas City Center
Fri 01:16:33 PM 38.2619 -96.2386 62° Northeast 350 403 15,100  Level Kansas City Center
Fri 01:17:35 PM 38.3064 -96.1369 61° Northeast 345 397 15,100  Level Kansas City Center
Fri 01:18:37 PM 38.3581 -96.0178 61° Northeast 345 397 15,100  Level Kansas City Center
Fri 01:19:39 PM 38.4006 -95.9150 62° Northeast 344 396 15,100 -435 Level Kansas City Center
Fri 01:20:41 PM 38.4514 -95.7981 61° Northeast 338 389 14,200 -1,104 Descending Kansas City Center
Fri 01:21:44 PM 38.4928 -95.7044 61° Northeast 319 367 12,800 -1,440 Descending Kansas City Center
Fri 01:22:46 PM 38.5336 -95.6031 63° Northeast 290 334 11,200 -1,548 Descending Kansas City Center
Fri 01:23:48 PM 38.5711 -95.5164 61° Northeast 292 336 9,600 -1,839 Descending Kansas City Center
Fri 01:24:50 PM 38.6161 -95.4097 62° Northeast 305 351 7,400 -1,887 Descending Kansas City Center
Fri 01:25:52 PM 38.6508 -95.3244 62° Northeast 285 328 5,700 -1,597 Descending Kansas City Center
Fri 01:26:54 PM 38.6908 -95.2331 61° Northeast 266 306 4,100 -774 Descending Kansas City Center
Fri 01:27:56 PM 38.7194 -95.1586 64° Northeast 249 287 4,100 -435 Level Kansas City Center
Fri 01:28:58 PM 38.7339 -95.0661 79° East 239 275 3,200 -532 Descending Kansas City Center
Fri 01:30:00 PM 38.7467 -94.9939 77° East 222 255 3,000 -242 Descending Kansas City Center
Fri 01:31:02 PM 38.7567 -94.9319 78° East 191 220 2,700 -629 Descending Kansas City Center
Fri 01:32:04 PM 38.7792 -94.8919 54° Northeast 131 151 1,700 -726 Descending Kansas City Center
Fri 01:33:06 PM 38.8075 -94.8906 North 110 127 1,200 -290 Descending Kansas City Center
Fri 01:34:08 PM 38.8406 -94.8917 359° North 109 125 1,100 -97 Descending Kansas City Center

Login

Don't have an account? Register now (free) for customized features, flight alerts, and more!